createdAt,value
2023-03-15T00:00:57.282Z,92.80
2023-03-15T00:03:26.821Z,93.30
2023-03-15T00:05:54.867Z,92.47
2023-03-15T00:08:22.988Z,96.00
2023-03-15T00:10:51.031Z,96.17
2023-03-15T00:13:19.153Z,96.70
2023-03-15T00:15:49.090Z,96.20
2023-03-15T00:18:19.880Z,95.57
2023-03-15T00:20:49.739Z,96.20
2023-03-15T00:23:18.420Z,97.30
2023-03-15T00:25:47.705Z,97.37
2023-03-15T00:28:16.855Z,98.60
2023-03-15T00:30:45.476Z,97.10
2023-03-15T00:33:14.726Z,96.10
2023-03-15T00:35:44.724Z,97.33
2023-03-15T00:38:14.928Z,97.10
2023-03-15T00:40:43.157Z,93.27
2023-03-15T00:43:11.215Z,99.20
2023-03-15T00:45:39.849Z,97.37
2023-03-15T00:48:07.967Z,98.63
2023-03-15T00:50:36.031Z,96.87
2023-03-15T00:53:04.120Z,96.60
2023-03-15T00:55:33.532Z,97.27
2023-03-15T00:58:01.623Z,96.17
2023-03-15T01:00:29.924Z,97.33
2023-03-15T01:02:57.981Z,97.90
2023-03-15T01:05:26.406Z,97.13
2023-03-15T01:07:54.483Z,98.07
2023-03-15T01:10:22.566Z,99.97
2023-03-15T01:12:51.994Z,99.63
2023-03-15T01:15:20.167Z,99.80
2023-03-15T01:17:48.204Z,100.50
2023-03-15T01:20:17.256Z,100.87
2023-03-15T01:22:45.325Z,101.97
2023-03-15T01:25:13.485Z,101.67
2023-03-15T01:27:41.566Z,102.20
2023-03-15T01:30:12.381Z,104.80
2023-03-15T01:32:40.438Z,104.17
2023-03-15T01:35:09.421Z,105.97
2023-03-15T01:37:37.533Z,105.20
2023-03-15T01:40:07.025Z,104.10
2023-03-15T01:42:35.105Z,103.53
2023-03-15T01:45:03.246Z,103.17
2023-03-15T01:47:32.856Z,105.03
2023-03-15T01:50:06.311Z,104.60
2023-03-15T01:52:37.191Z,105.17
2023-03-15T01:55:10.175Z,105.27
2023-03-15T01:57:42.159Z,106.27
2023-03-15T02:00:12.830Z,107.63
2023-03-15T02:02:48.144Z,105.83
2023-03-15T02:05:21.472Z,106.93
2023-03-15T02:07:50.970Z,106.73
2023-03-15T02:10:21.605Z,106.97
2023-03-15T02:12:52.900Z,108.27
2023-03-15T02:15:21.294Z,107.27
2023-03-15T02:17:50.775Z,107.53
2023-03-15T02:20:30.253Z,106.33
2023-03-15T02:23:01.051Z,108.03
2023-03-15T02:25:40.318Z,109.27
2023-03-15T02:28:12.038Z,104.00
2023-03-15T02:30:40.617Z,103.10
2023-03-15T02:33:13.816Z,103.03
2023-03-15T02:35:41.900Z,105.00
2023-03-15T02:38:09.957Z,103.27
2023-03-15T02:40:38.128Z,105.90
2023-03-15T02:43:11.656Z,104.80
2023-03-15T02:45:40.660Z,106.47
2023-03-15T02:48:10.994Z,106.60
2023-03-15T02:50:39.352Z,108.30
2023-03-15T02:53:07.451Z,110.03
2023-03-15T02:55:35.517Z,108.87
2023-03-15T02:58:03.811Z,109.77
2023-03-15T03:00:33.304Z,109.60
2023-03-15T03:03:01.401Z,111.07
2023-03-15T03:05:29.614Z,110.07
2023-03-15T03:07:58.697Z,111.30
2023-03-15T03:10:26.810Z,109.97
2023-03-15T03:12:55.332Z,108.70
2023-03-15T03:15:23.509Z,106.53
2023-03-15T03:17:54.533Z,108.17
2023-03-15T03:20:22.682Z,107.33
2023-03-15T03:22:50.777Z,106.80
2023-03-15T03:25:19.000Z,109.40
2023-03-15T03:27:47.114Z,108.03
2023-03-15T03:30:15.783Z,105.90
2023-03-15T03:32:43.916Z,105.17
2023-03-15T03:35:15.598Z,106.17
2023-03-15T03:37:44.224Z,107.03
2023-03-15T03:40:13.757Z,108.77
2023-03-15T03:42:41.884Z,107.57
2023-03-15T03:45:10.806Z,107.03
2023-03-15T03:47:38.894Z,110.33
2023-03-15T03:50:08.093Z,110.77
2023-03-15T03:52:37.554Z,108.43
2023-03-15T03:55:06.189Z,106.10
2023-03-15T03:57:34.341Z,108.50
2023-03-15T04:00:02.366Z,110.60
2023-03-15T04:02:30.466Z,110.97
2023-03-15T04:04:59.709Z,108.80
2023-03-15T04:07:28.022Z,108.53
2023-03-15T04:09:57.452Z,109.13
2023-03-15T04:12:25.709Z,107.83
2023-03-15T04:14:54.180Z,106.00
2023-03-15T04:17:22.230Z,108.23
2023-03-15T04:19:50.321Z,106.90
2023-03-15T04:22:18.408Z,104.87
2023-03-15T04:24:46.493Z,106.20
2023-03-15T04:27:15.873Z,105.10
2023-03-15T04:29:44.371Z,108.50
2023-03-15T04:32:12.965Z,107.43
2023-03-15T04:34:41.249Z,106.40
2023-03-15T04:37:10.063Z,104.80
2023-03-15T04:39:39.128Z,105.10
2023-03-15T04:42:07.757Z,106.20
2023-03-15T04:44:37.264Z,108.17
2023-03-15T04:47:05.542Z,107.67
2023-03-15T04:49:33.625Z,107.93
2023-03-15T04:52:01.992Z,108.70
2023-03-15T04:54:30.046Z,112.40
2023-03-15T04:56:58.181Z,110.90
2023-03-15T04:59:26.565Z,110.73
2023-03-15T05:01:55.998Z,107.60
2023-03-15T05:04:24.122Z,108.57
2023-03-15T05:06:52.163Z,108.73
2023-03-15T05:09:20.270Z,106.20
2023-03-15T05:11:48.367Z,102.40
2023-03-15T05:14:16.416Z,108.07
2023-03-15T05:16:44.491Z,107.17
2023-03-15T05:19:13.896Z,110.47
2023-03-15T05:21:42.043Z,112.60
2023-03-15T05:24:10.155Z,114.23
2023-03-15T05:26:38.196Z,116.13
2023-03-15T05:29:06.263Z,110.80
2023-03-15T05:31:37.038Z,111.17
2023-03-15T05:34:05.487Z,106.73
2023-03-15T05:36:35.817Z,105.73
2023-03-15T05:39:04.406Z,109.60
2023-03-15T05:41:33.831Z,112.10
2023-03-15T05:44:02.154Z,134.83
2023-03-15T05:46:31.963Z,129.37
2023-03-15T05:49:00.103Z,128.30
2023-03-15T05:51:28.162Z,124.57
2023-03-15T05:53:57.422Z,119.50
2023-03-15T05:56:25.625Z,118.93
2023-03-15T05:58:53.867Z,121.37
2023-03-15T06:01:21.961Z,117.23
2023-03-15T06:03:50.094Z,116.87
2023-03-15T06:06:18.204Z,114.27
2023-03-15T06:08:46.287Z,115.23
2023-03-15T06:11:15.689Z,117.37
2023-03-15T06:13:43.778Z,115.07
2023-03-15T06:16:11.906Z,116.43
2023-03-15T06:18:40.030Z,114.30
2023-03-15T06:21:08.635Z,117.60
2023-03-15T06:23:36.838Z,116.70
2023-03-15T06:26:05.142Z,115.23
2023-03-15T06:28:34.573Z,116.80
2023-03-15T06:31:08.136Z,114.57
2023-03-15T06:33:36.306Z,116.17
2023-03-15T06:36:04.769Z,112.30
2023-03-15T06:38:32.981Z,107.53
2023-03-15T06:41:01.776Z,111.23
2023-03-15T06:43:30.055Z,118.83
2023-03-15T06:46:00.067Z,121.87
2023-03-15T06:48:28.764Z,119.93
2023-03-15T06:50:56.826Z,120.80
2023-03-15T06:53:24.876Z,124.80
2023-03-15T06:55:52.981Z,129.03
2023-03-15T06:58:21.102Z,130.93
2023-03-15T07:00:49.587Z,123.97
2023-03-15T07:03:21.458Z,127.87
2023-03-15T07:05:52.445Z,128.87
2023-03-15T07:08:20.673Z,128.80
2023-03-15T07:10:50.345Z,129.73
2023-03-15T07:13:19.799Z,126.13
2023-03-15T07:15:52.169Z,124.33
2023-03-15T07:18:21.729Z,122.67
2023-03-15T07:20:57.282Z,112.47
2023-03-15T07:23:25.495Z,119.27
2023-03-15T07:25:55.453Z,118.17
2023-03-15T07:28:25.414Z,124.70
2023-03-15T07:30:55.030Z,127.70
2023-03-15T07:33:25.768Z,124.50
2023-03-15T07:35:54.614Z,118.47
2023-03-15T07:38:23.731Z,113.33
2023-03-15T07:40:51.882Z,113.37
2023-03-15T07:43:20.630Z,116.00
2023-03-15T07:45:48.713Z,117.57
2023-03-15T07:48:16.788Z,119.60
2023-03-15T07:50:46.682Z,118.47
2023-03-15T07:53:14.914Z,121.40
2023-03-15T07:55:42.950Z,119.73
2023-03-15T07:58:11.506Z,120.10
2023-03-15T08:00:39.577Z,124.97
2023-03-15T08:03:07.765Z,124.87
2023-03-15T08:05:36.093Z,124.43
2023-03-15T08:08:06.034Z,124.80
2023-03-15T08:10:34.147Z,119.67
2023-03-15T08:13:02.222Z,120.90
2023-03-15T08:15:30.432Z,122.83
2023-03-15T08:17:59.682Z,121.50
2023-03-15T08:20:29.817Z,122.47
2023-03-15T08:22:58.314Z,123.17
2023-03-15T08:25:28.392Z,123.97
2023-03-15T08:27:56.545Z,122.03
2023-03-15T08:30:25.068Z,122.87
2023-03-15T08:32:53.514Z,129.50
2023-03-15T08:35:22.885Z,123.50
2023-03-15T08:37:52.381Z,115.80
2023-03-15T08:40:24.843Z,116.70
2023-03-15T08:42:54.764Z,114.80
2023-03-15T08:45:23.988Z,112.80
2023-03-15T08:47:55.357Z,110.33
2023-03-15T08:50:23.939Z,111.70
2023-03-15T08:52:52.114Z,105.77
2023-03-15T08:55:20.709Z,106.13
2023-03-15T08:57:49.293Z,103.40
2023-03-15T09:00:22.770Z,103.13
2023-03-15T09:02:52.934Z,103.00
2023-03-15T09:05:22.146Z,104.87
2023-03-15T09:07:53.073Z,96.60
2023-03-15T09:10:22.247Z,98.40
2023-03-15T09:12:53.631Z,89.83
2023-03-15T09:15:23.211Z,84.47
2023-03-15T09:17:52.048Z,86.03
2023-03-15T09:20:22.807Z,82.70
2023-03-15T09:22:55.900Z,68.60
2023-03-15T09:25:25.223Z,56.03
2023-03-15T09:27:54.413Z,52.50
2023-03-15T09:30:24.073Z,43.13
2023-03-15T09:32:52.157Z,41.10
2023-03-15T09:35:21.363Z,47.27
2023-03-15T09:37:51.194Z,39.77
2023-03-15T09:40:23.212Z,40.30
2023-03-15T09:43:14.227Z,32.47
2023-03-15T09:45:56.473Z,31.33
2023-03-15T09:48:32.290Z,29.70
2023-03-15T09:51:07.209Z,24.97
2023-03-15T09:53:39.926Z,24.90
2023-03-15T09:56:21.441Z,25.50
2023-03-15T09:58:53.114Z,24.30
2023-03-15T10:01:30.205Z,23.77
2023-03-15T10:03:58.551Z,22.07
2023-03-15T10:06:36.530Z,22.00
2023-03-15T10:09:14.115Z,21.87
2023-03-15T10:11:51.032Z,21.20
2023-03-15T10:14:30.288Z,20.70
2023-03-15T10:16:59.726Z,20.40
2023-03-15T10:19:37.100Z,20.20
2023-03-15T10:22:14.227Z,19.57
2023-03-15T10:24:49.018Z,19.50
2023-03-15T10:27:21.664Z,19.00
2023-03-15T10:29:52.674Z,18.93
2023-03-15T10:32:25.617Z,19.03
2023-03-15T10:34:56.636Z,19.30
2023-03-15T10:37:25.151Z,18.93
2023-03-15T10:39:57.500Z,18.77
2023-03-15T10:42:30.890Z,18.60
2023-03-15T10:45:00.267Z,18.90
2023-03-15T10:47:29.724Z,20.77
2023-03-15T10:49:59.192Z,20.90
2023-03-15T10:52:31.717Z,18.80
2023-03-15T10:55:04.629Z,18.83
2023-03-15T10:57:38.971Z,18.80
2023-03-15T11:00:23.880Z,18.60
2023-03-15T11:03:03.311Z,18.20
2023-03-15T11:05:33.224Z,19.03
2023-03-15T11:08:02.500Z,17.60
2023-03-15T11:10:35.756Z,17.97
2023-03-15T11:13:19.793Z,18.50
2023-03-15T11:16:01.457Z,18.30
2023-03-15T11:18:35.812Z,18.40
2023-03-15T11:21:07.769Z,18.33
2023-03-15T11:23:38.875Z,18.27
2023-03-15T11:26:08.665Z,18.60
2023-03-15T11:28:40.017Z,19.00
2023-03-15T11:31:08.528Z,18.53
2023-03-15T11:33:48.425Z,18.90
2023-03-15T11:36:20.874Z,18.57
2023-03-15T11:38:49.199Z,18.70
2023-03-15T11:41:26.592Z,18.40
2023-03-15T11:44:03.629Z,18.50
2023-03-15T11:46:35.565Z,18.50
2023-03-15T11:49:15.288Z,18.67
2023-03-15T11:51:43.583Z,18.50
2023-03-15T11:54:14.705Z,18.93
2023-03-15T11:56:54.736Z,19.20
2023-03-15T11:59:27.709Z,18.80
2023-03-15T12:02:00.868Z,19.10
2023-03-15T12:04:44.389Z,19.50
2023-03-15T12:07:59.269Z,19.33
2023-03-15T12:10:35.802Z,19.13
2023-03-15T12:13:24.045Z,19.13
2023-03-15T12:15:53.220Z,19.67
2023-03-15T12:18:26.387Z,19.40
2023-03-15T12:21:08.488Z,18.70
2023-03-15T12:23:43.947Z,18.83
2023-03-15T12:26:24.180Z,19.27
2023-03-15T12:29:03.886Z,19.07
2023-03-15T12:31:52.432Z,21.43
2023-03-15T12:34:31.686Z,19.17
2023-03-15T12:37:05.716Z,18.50
2023-03-15T12:39:43.339Z,18.63
2023-03-15T12:42:48.724Z,18.87
2023-03-15T12:45:47.054Z,21.07
2023-03-15T12:48:26.164Z,19.07
2023-03-15T12:50:57.025Z,19.10
2023-03-15T12:53:37.235Z,18.43
2023-03-15T12:56:35.894Z,18.60
2023-03-15T12:59:13.791Z,19.00
2023-03-15T13:01:43.691Z,18.47
2023-03-15T13:04:13.744Z,18.30
2023-03-15T13:06:53.586Z,18.40
2023-03-15T13:09:42.159Z,18.83
2023-03-15T13:12:16.265Z,18.70
2023-03-15T13:14:51.578Z,18.93
2023-03-15T13:17:31.633Z,18.90
2023-03-15T13:20:28.824Z,18.97
2023-03-15T13:23:04.464Z,18.60
2023-03-15T13:25:39.093Z,18.70
2023-03-15T13:28:12.750Z,18.80
2023-03-15T13:30:42.312Z,18.70
2023-03-15T13:33:21.184Z,18.70
2023-03-15T13:35:55.287Z,19.13
2023-03-15T13:38:27.920Z,19.07
2023-03-15T13:40:58.352Z,19.00
2023-03-15T13:43:28.089Z,19.37
2023-03-15T13:45:59.448Z,19.03
2023-03-15T13:48:32.459Z,18.93
2023-03-15T13:51:05.491Z,19.23
2023-03-15T13:53:48.956Z,19.10
2023-03-15T13:56:22.566Z,18.90
2023-03-15T13:58:52.058Z,18.60
2023-03-15T14:01:23.140Z,18.47
2023-03-15T14:03:58.984Z,19.00
2023-03-15T14:06:28.376Z,18.57
2023-03-15T14:09:01.697Z,18.50
2023-03-15T14:11:38.245Z,18.53
2023-03-15T14:14:23.072Z,18.40
2023-03-15T14:17:04.173Z,18.43
2023-03-15T14:19:37.051Z,18.53
2023-03-15T14:22:15.495Z,18.50
2023-03-15T14:24:45.639Z,18.80
2023-03-15T14:27:20.084Z,18.80
2023-03-15T14:29:50.656Z,18.60
2023-03-15T14:32:28.969Z,18.77
2023-03-15T14:35:03.531Z,18.77
2023-03-15T14:37:37.171Z,18.23
2023-03-15T14:40:23.903Z,18.30
2023-03-15T14:42:53.296Z,18.37
2023-03-15T14:45:23.106Z,18.37
2023-03-15T14:47:57.240Z,18.27
2023-03-15T14:50:27.830Z,18.33
2023-03-15T14:52:58.157Z,18.43
2023-03-15T14:55:33.451Z,18.50
2023-03-15T14:58:04.453Z,18.80
2023-03-15T15:00:34.651Z,18.53
2023-03-15T15:03:03.294Z,18.83
2023-03-15T15:05:34.542Z,18.50
2023-03-15T15:08:06.084Z,18.73
2023-03-15T15:10:35.468Z,18.87
2023-03-15T15:13:07.338Z,19.00
2023-03-15T15:15:53.525Z,18.60
2023-03-15T15:18:24.029Z,19.07
2023-03-15T15:20:55.420Z,19.20
2023-03-15T15:23:26.656Z,19.20
2023-03-15T15:25:57.426Z,18.87
2023-03-15T15:28:35.445Z,18.97
2023-03-15T15:31:05.761Z,19.10
2023-03-15T15:33:34.311Z,18.87
2023-03-15T15:36:03.048Z,19.03
2023-03-15T15:38:38.257Z,18.80
2023-03-15T15:41:07.792Z,18.80
2023-03-15T15:43:37.249Z,18.60
2023-03-15T15:46:07.505Z,18.80
2023-03-15T15:48:35.618Z,18.73
2023-03-15T15:51:03.869Z,18.80
2023-03-15T15:53:33.721Z,18.87
2023-03-15T15:56:02.658Z,18.70
2023-03-15T15:58:31.086Z,18.50
2023-03-15T16:01:00.813Z,18.67
2023-03-15T16:03:29.117Z,18.83
2023-03-15T16:05:57.332Z,18.70
2023-03-15T16:08:26.391Z,18.70
2023-03-15T16:10:54.547Z,18.47
2023-03-15T16:13:22.932Z,18.40
2023-03-15T16:15:51.056Z,18.47
2023-03-15T16:18:20.548Z,18.37
2023-03-15T16:20:48.829Z,18.20
2023-03-15T16:23:21.558Z,18.57
2023-03-15T16:25:52.086Z,18.20
2023-03-15T16:28:20.186Z,18.10
2023-03-15T16:30:48.507Z,18.50
2023-03-15T16:33:18.663Z,18.30
2023-03-15T16:35:50.164Z,18.10
2023-03-15T16:38:24.196Z,18.50
2023-03-15T16:40:53.392Z,18.17
2023-03-15T16:43:21.763Z,18.80
2023-03-15T16:45:49.849Z,18.40
2023-03-15T16:48:18.037Z,18.53
2023-03-15T16:50:46.644Z,18.43
2023-03-15T16:53:16.485Z,18.53
2023-03-15T16:55:44.684Z,18.10
2023-03-15T16:58:19.532Z,18.80
2023-03-15T17:00:48.436Z,18.67
2023-03-15T17:03:17.826Z,18.70
2023-03-15T17:05:47.609Z,19.80
2023-03-15T17:08:20.992Z,18.37
2023-03-15T17:10:49.361Z,18.47
2023-03-15T17:13:21.501Z,18.40
2023-03-15T17:15:49.598Z,18.10
2023-03-15T17:18:19.723Z,17.70
2023-03-15T17:20:50.223Z,17.37
2023-03-15T17:23:21.238Z,17.63
2023-03-15T17:25:50.208Z,17.80
2023-03-15T17:28:18.391Z,17.30
2023-03-15T17:30:46.507Z,16.17
2023-03-15T17:33:14.680Z,16.80
2023-03-15T17:35:45.777Z,17.00
2023-03-15T17:38:19.718Z,16.53
2023-03-15T17:40:49.564Z,16.77
2023-03-15T17:43:18.018Z,16.80
2023-03-15T17:45:46.369Z,17.53
2023-03-15T17:48:14.493Z,17.00
2023-03-15T17:50:44.909Z,17.00
2023-03-15T17:53:17.324Z,16.57
2023-03-15T17:55:46.638Z,16.57
2023-03-15T17:58:20.775Z,16.50
2023-03-15T18:00:50.443Z,17.70
2023-03-15T18:03:19.202Z,17.27
2023-03-15T18:05:48.554Z,17.20
2023-03-15T18:08:19.000Z,17.30
2023-03-15T18:10:48.856Z,17.60
2023-03-15T18:13:21.461Z,17.30
2023-03-15T18:15:51.215Z,17.20
2023-03-15T18:18:20.300Z,17.40
2023-03-15T18:20:49.459Z,19.33
2023-03-15T18:23:18.479Z,17.30
2023-03-15T18:25:46.680Z,17.50
2023-03-15T18:28:14.730Z,17.13
2023-03-15T18:30:44.848Z,16.90
2023-03-15T18:33:14.185Z,17.03
2023-03-15T18:35:42.270Z,18.33
2023-03-15T18:38:10.372Z,17.93
2023-03-15T18:40:38.477Z,17.97
2023-03-15T18:43:06.754Z,18.40
2023-03-15T18:45:36.610Z,18.00
2023-03-15T18:48:06.596Z,18.27
2023-03-15T18:50:36.125Z,19.20
2023-03-15T18:53:06.181Z,18.77
2023-03-15T18:55:35.651Z,18.10
2023-03-15T18:58:04.451Z,18.17
2023-03-15T19:00:36.093Z,17.87
2023-03-15T19:03:06.678Z,17.20
2023-03-15T19:05:36.645Z,17.50
2023-03-15T19:08:05.161Z,17.70
2023-03-15T19:10:33.233Z,17.30
2023-03-15T19:13:04.037Z,17.20
2023-03-15T19:15:32.781Z,17.90
2023-03-15T19:18:01.631Z,18.07
2023-03-15T19:20:31.068Z,18.33
2023-03-15T19:22:59.236Z,18.27
2023-03-15T19:25:27.314Z,18.13
2023-03-15T19:27:55.601Z,17.80
2023-03-15T19:30:23.817Z,18.57
2023-03-15T19:32:52.327Z,18.70
2023-03-15T19:35:21.762Z,18.10
2023-03-15T19:37:51.958Z,17.47
2023-03-15T19:40:21.260Z,18.03
2023-03-15T19:42:49.681Z,18.30
2023-03-15T19:45:19.032Z,18.47
2023-03-15T19:47:47.565Z,18.10
2023-03-15T19:50:16.709Z,18.48
2023-03-15T19:52:47.767Z,18.40
2023-03-15T19:55:19.391Z,17.63
2023-03-15T19:57:48.414Z,18.02
2023-03-15T20:00:18.771Z,18.00
2023-03-15T20:02:48.174Z,17.33
2023-03-15T20:05:17.632Z,17.53
2023-03-15T20:07:46.221Z,17.40
2023-03-15T20:10:14.980Z,17.30
2023-03-15T20:12:45.353Z,18.20
2023-03-15T20:15:15.678Z,17.80
2023-03-15T20:17:44.573Z,18.20
2023-03-15T20:20:14.786Z,18.00
2023-03-15T20:22:44.327Z,17.80
2023-03-15T20:25:13.459Z,18.50
2023-03-15T20:27:41.912Z,20.30
2023-03-15T20:30:14.605Z,18.60
2023-03-15T20:32:43.570Z,20.00
2023-03-15T20:35:12.279Z,19.20
2023-03-15T20:37:42.382Z,19.30
2023-03-15T20:40:12.945Z,19.30
2023-03-15T20:42:41.683Z,21.03
2023-03-15T20:45:12.651Z,20.10
2023-03-15T20:47:41.441Z,19.07
2023-03-15T20:50:11.311Z,18.77
2023-03-15T20:52:40.842Z,18.53
2023-03-15T20:55:09.840Z,19.00
2023-03-15T20:57:41.230Z,19.07
2023-03-15T21:00:18.078Z,19.30
2023-03-15T21:02:47.635Z,18.33
2023-03-15T21:05:16.294Z,18.50
2023-03-15T21:07:44.866Z,19.50
2023-03-15T21:10:14.708Z,19.70
2023-03-15T21:12:43.937Z,20.57
2023-03-15T21:15:17.857Z,19.50
2023-03-15T21:17:48.752Z,18.97
2023-03-15T21:20:17.054Z,18.90
2023-03-15T21:22:45.437Z,18.73
2023-03-15T21:25:13.527Z,18.73
2023-03-15T21:27:41.643Z,19.33
2023-03-15T21:30:13.800Z,19.30
2023-03-15T21:32:44.691Z,19.80
2023-03-15T21:35:13.276Z,20.43
2023-03-15T21:37:41.413Z,19.23
2023-03-15T21:40:10.825Z,19.90
2023-03-15T21:42:39.426Z,18.70
2023-03-15T21:45:08.916Z,19.00
2023-03-15T21:47:37.013Z,18.80
2023-03-15T21:50:07.537Z,18.83
2023-03-15T21:52:35.601Z,19.10
2023-03-15T21:55:05.082Z,18.63
2023-03-15T21:57:33.794Z,18.40
2023-03-15T22:00:01.984Z,18.43
2023-03-15T22:02:30.044Z,18.43
2023-03-15T22:04:58.242Z,18.20
2023-03-15T22:07:27.732Z,18.90
2023-03-15T22:09:55.788Z,19.00
2023-03-15T22:12:25.262Z,18.47
2023-03-15T22:15:04.813Z,20.63
2023-03-15T22:17:33.640Z,18.60
2023-03-15T22:20:02.052Z,18.60
2023-03-15T22:22:31.537Z,19.23
2023-03-15T22:24:59.611Z,18.83
2023-03-15T22:27:27.657Z,19.93
2023-03-15T22:29:55.738Z,19.10
2023-03-15T22:32:23.824Z,19.27
2023-03-15T22:34:51.881Z,19.40
2023-03-15T22:37:19.988Z,19.80
2023-03-15T22:39:49.381Z,19.87
2023-03-15T22:42:17.781Z,19.33
2023-03-15T22:44:45.804Z,19.57
2023-03-15T22:47:13.875Z,19.30
2023-03-15T22:49:42.067Z,20.03
2023-03-15T22:52:10.294Z,20.30
2023-03-15T22:54:38.229Z,20.43
2023-03-15T22:57:07.782Z,20.43
2023-03-15T22:59:36.061Z,19.93
2023-03-15T23:02:04.710Z,19.90
2023-03-15T23:04:33.954Z,19.60
2023-03-15T23:07:02.145Z,19.17
2023-03-15T23:09:30.373Z,20.57
2023-03-15T23:11:58.499Z,19.30
2023-03-15T23:14:28.025Z,21.00
2023-03-15T23:16:56.067Z,20.90
2023-03-15T23:19:25.236Z,20.40
2023-03-15T23:21:53.374Z,19.00
2023-03-15T23:24:22.722Z,19.50
2023-03-15T23:26:56.468Z,19.80
2023-03-15T23:29:24.559Z,19.53
2023-03-15T23:31:53.922Z,19.60
2023-03-15T23:34:23.555Z,19.80
2023-03-15T23:36:51.796Z,20.23
2023-03-15T23:39:20.234Z,20.27
2023-03-15T23:41:48.798Z,20.13
2023-03-15T23:44:16.939Z,20.40
2023-03-15T23:46:45.160Z,20.40
2023-03-15T23:49:14.578Z,20.57
2023-03-15T23:51:43.993Z,20.13
2023-03-15T23:54:12.363Z,19.80
2023-03-15T23:56:40.403Z,20.13
2023-03-15T23:59:08.521Z,20.20
